Time;durP1;ratioP1;P1;durP2;ratioP2;P2;SDS_P1;SDS_P2;PMS_P1;PMS_P2;Temp;Humidity;BMP_temperature;BMP_pressure;BME280_temperature;BME280_humidity;BME280_pressure;Samples;Min_cycle;Max_cycle;Signal;HPM_P1;HPM_P2
2022/05/30 00:00:45;;;;;;;4.88;1.38;;;;;;;8.81;73.50;100297.69;4973683;28;19969;-75
2022/05/30 00:03:49;;;;;;;3.45;1.30;;;;;;;8.84;73.43;100297.53;4973437;28;20113;-75
2022/05/30 00:06:53;;;;;;;3.05;1.35;;;;;;;8.87;73.40;100291.31;4973681;28;20053;-75
2022/05/30 00:09:56;;;;;;;;;;;;;;;8.77;74.24;100299.56;4973633;28;20132;-75
2022/05/30 00:13:00;;;;;;;4.07;1.42;;;;;;;8.90;73.58;100293.75;4973277;28;19925;-75
2022/05/30 00:16:04;;;;;;;;;;;;;;;8.95;73.83;100295.22;4973752;28;20739;-75
2022/05/30 00:19:09;;;;;;;3.78;1.60;;;;;;;8.81;73.19;100302.91;4973772;28;19921;-75
2022/05/30 00:22:14;;;;;;;;;;;;;;;8.59;75.01;100298.72;4973645;28;20424;-75
2022/05/30 00:25:18;;;;;;;4.15;1.40;;;;;;;8.76;74.79;100300.50;4973210;28;20009;-75
2022/05/30 00:28:22;;;;;;;4.30;1.50;;;;;;;8.86;74.48;100295.69;4972960;28;20098;-75
2022/05/30 00:31:25;;;;;;;3.50;1.52;;;;;;;8.64;75.14;100295.03;4973396;28;20057;-75
2022/05/30 00:34:29;;;;;;;4.80;1.50;;;;;;;8.43;76.17;100294.31;4972124;28;20109;-75
2022/05/30 00:37:33;;;;;;;4.05;1.98;;;;;;;8.55;76.21;100286.75;4972977;28;20407;-75
2022/05/30 00:40:36;;;;;;;;;;;;;;;8.36;76.97;100283.28;4961589;28;20102;-75
2022/05/30 00:43:41;;;;;;;;;;;;;;;8.58;76.07;100276.19;4961324;28;20433;-75
2022/05/30 00:46:44;;;;;;;2.78;1.50;;;;;;;8.35;77.06;100276.38;4972843;28;19921;-75
2022/05/30 00:49:49;;;;;;;6.22;1.80;;;;;;;8.36;77.50;100275.47;4961080;28;20067;-75
2022/05/30 00:52:52;;;;;;;3.22;1.60;;;;;;;8.70;75.69;100273.88;4973688;28;20076;-75
2022/05/30 00:55:57;;;;;;;7.20;1.80;;;;;;;8.30;76.21;100271.41;4964718;28;20042;-75
2022/05/30 00:59:02;;;;;;;5.85;2.17;;;;;;;8.24;77.44;100271.69;4964654;28;20037;-75
2022/05/30 01:02:07;;;;;;;3.08;1.60;;;;;;;8.19;77.58;100273.63;4964625;28;20129;-75
2022/05/30 01:08:35;;;;;;;4.97;2.08;;;;;;;8.29;76.33;100264.47;4975460;28;20050;-75
2022/05/30 01:11:57;;;;;;;3.92;1.92;;;;;;;8.22;76.41;100267.44;4975217;28;20041;-75
2022/05/30 01:15:00;;;;;;;4.53;1.38;;;;;;;8.38;75.27;100265.84;4976508;28;20485;-75
2022/05/30 01:18:11;;;;;;;;;;;;;;;8.40;75.49;100260.56;4964799;28;20046;-75
2022/05/30 01:21:44;;;;;;;2.80;1.70;;;;;;;8.34;75.51;100266.88;4964006;28;19921;-75
2022/05/30 01:24:51;;;;;;;2.50;1.30;;;;;;;8.56;74.96;100267.56;4963978;28;20049;-75
2022/05/30 01:28:20;;;;;;;3.53;1.60;;;;;;;8.48;74.63;100272.28;4975715;28;20067;-75
2022/05/30 01:31:24;;;;;;;3.90;1.38;;;;;;;8.32;74.76;100263.50;4975094;28;20504;-75
2022/05/30 01:34:28;;;;;;;5.72;1.52;;;;;;;8.48;74.37;100264.47;4963405;28;20062;-75
2022/05/30 01:37:32;;;;;;;2.95;1.60;;;;;;;8.19;75.25;100259.78;4963598;28;20462;-75
2022/05/30 01:40:36;;;;;;;3.53;1.40;;;;;;;8.10;76.04;100264.50;4974698;28;20517;-75
2022/05/30 01:43:39;;;;;;;4.82;1.70;;;;;;;8.06;76.67;100256.91;4975528;28;20070;-75
2022/05/30 01:46:46;;;;;;;3.03;1.60;;;;;;;8.04;76.75;100267.41;4974388;28;20049;-75
2022/05/30 01:49:49;;;;;;;3.22;1.70;;;;;;;8.03;77.27;100270.06;4974711;28;20125;-75
2022/05/30 01:52:54;;;;;;;3.42;1.77;;;;;;;8.16;76.45;100261.59;4963126;28;20098;-75
2022/05/30 01:56:17;;;;;;;3.75;2.00;;;;;;;7.97;77.35;100258.16;4974756;28;20077;-75
2022/05/30 01:59:21;;;;;;;4.88;2.30;;;;;;;7.93;77.74;100256.63;4974894;28;20045;-75
2022/05/30 02:02:53;;;;;;;3.28;2.10;;;;;;;8.09;77.06;100265.41;4975423;28;20509;-75
2022/05/30 02:05:57;;;;;;;3.20;1.75;;;;;;;8.54;75.19;100258.13;4973820;28;20561;-75
2022/05/30 02:09:01;;;;;;;2.97;1.77;;;;;;;8.67;74.41;100256.63;4974333;28;20053;-75
2022/05/30 02:12:07;;;;;;;4.38;2.33;;;;;;;8.37;75.94;100257.16;4963411;28;20513;-75
2022/05/30 02:17:00;;;;;;;3.90;1.70;;;;;;;8.11;77.38;100254.94;4973407;28;20121;-75
2022/05/30 02:18:58;;;;;;;3.72;2.22;;;;;;;8.02;77.85;100252.75;4962967;28;20041;-75
2022/05/30 02:22:04;;;;;;;3.70;2.20;;;;;;;8.00;77.92;100245.00;4963294;28;20050;-75
2022/05/30 02:25:08;;;;;;;5.28;3.13;;;;;;;7.98;78.14;100248.63;4974105;28;20045;-75
2022/05/30 02:28:12;;;;;;;5.72;1.92;;;;;;;7.96;77.82;100240.84;4963321;28;20406;-75
2022/05/30 02:31:16;;;;;;;4.28;2.38;;;;;;;7.94;77.73;100242.66;4962869;28;20194;-75
2022/05/30 02:37:41;;;;;;;3.88;1.90;;;;;;;8.01;77.83;100244.09;4973592;28;20045;-75
2022/05/30 02:41:07;;;;;;;5.57;2.28;;;;;;;8.19;76.95;100236.34;4974756;28;20058;-75
2022/05/30 02:44:54;;;;;;;4.97;2.20;;;;;;;8.19;77.05;100231.13;4974445;28;20062;-75
2022/05/30 02:47:57;;;;;;;4.13;2.50;;;;;;;8.10;77.29;100243.69;4962393;28;20133;-75
2022/05/30 02:51:01;;;;;;;;;;;;;;;8.10;77.54;100237.59;4963016;28;20042;-75
2022/05/30 02:54:05;;;;;;;4.03;2.30;;;;;;;8.04;77.71;100249.16;4962729;28;19962;-75
2022/05/30 02:57:38;;;;;;;3.60;2.08;;;;;;;8.35;76.47;100245.13;4973763;28;20410;-75
2022/05/30 03:00:41;;;;;;;4.43;2.33;;;;;;;8.24;76.29;100244.78;4962252;28;20149;-75
2022/05/30 03:03:45;;;;;;;;;;;;;;;8.26;76.03;100237.72;4962748;28;20100;-75
2022/05/30 03:06:48;;;;;;;4.55;2.72;;;;;;;8.08;76.99;100240.28;4962236;28;19921;-75
2022/05/30 03:09:51;;;;;;;4.30;2.67;;;;;;;8.14;76.85;100237.41;4973237;28;20109;-75
2022/05/30 03:13:11;;;;;;;5.70;2.50;;;;;;;8.13;77.53;100234.84;4961988;28;20113;-75
2022/05/30 03:16:15;;;;;;;5.53;2.38;;;;;;;8.07;77.55;100243.81;4972962;28;20101;-75
2022/05/30 03:19:21;;;;;;;4.72;2.50;;;;;;;8.01;77.89;100244.09;4973444;28;20398;-75
2022/05/30 03:22:25;;;;;;;5.85;3.78;;;;;;;8.21;77.34;100239.72;4973274;28;20521;-75
2022/05/30 03:25:47;;;;;;;4.93;2.50;;;;;;;8.33;77.09;100245.19;4973921;28;20054;-75
2022/05/30 03:28:51;;;;;;;4.93;2.60;;;;;;;8.30;77.05;100249.72;4961685;28;20054;-75
2022/05/30 03:31:54;;;;;;;6.10;2.92;;;;;;;8.15;77.65;100241.69;4973760;28;20046;-75
2022/05/30 03:34:58;;;;;;;3.85;2.65;;;;;;;8.20;77.90;100243.22;4973371;28;20050;-75
2022/05/30 03:38:04;;;;;;;3.90;2.60;;;;;;;8.01;78.42;100249.31;4973114;28;20088;-75
2022/05/30 03:41:28;;;;;;;5.20;2.67;;;;;;;7.96;78.85;100250.44;4973770;28;20049;-75
2022/05/30 03:44:41;;;;;;;3.85;2.75;;;;;;;8.15;78.33;100244.28;4961673;28;20085;-75
2022/05/30 03:47:45;;;;;;;;;;;;;;;8.28;77.86;100252.38;4973945;28;20531;-75
2022/05/30 03:50:49;;;;;;;4.30;2.20;;;;;;;8.34;78.13;100244.28;4961458;28;19921;-75
2022/05/30 03:53:53;;;;;;;4.80;2.38;;;;;;;8.22;78.43;100252.66;4973558;28;20093;-75
2022/05/30 03:56:57;;;;;;;5.57;2.88;;;;;;;8.37;78.19;100256.31;4961856;28;20057;-75
2022/05/30 04:00:03;;;;;;;5.03;2.40;;;;;;;8.54;77.32;100260.75;4961165;28;20501;-74
2022/05/30 04:03:18;;;;;;;4.35;2.55;;;;;;;8.59;77.42;100267.44;4973445;28;20126;-75
2022/05/30 04:06:22;;;;;;;5.53;2.25;;;;;;;8.43;77.67;100255.22;4962008;28;20109;-74
2022/05/30 04:09:25;;;;;;;;;;;;;;;8.28;78.90;100251.53;4961674;28;20070;-75
2022/05/30 04:12:32;;;;;;;5.88;2.45;;;;;;;8.25;78.71;100256.88;4973353;28;19969;-75
2022/05/30 04:16:12;;;;;;;3.88;2.47;;;;;;;8.38;78.31;100258.03;4973289;28;20057;-75
2022/05/30 04:19:17;;;;;;;3.97;2.60;;;;;;;8.60;77.69;100261.28;4961327;28;20077;-75
2022/05/30 04:22:21;;;;;;;3.47;2.38;;;;;;;8.56;78.32;100262.38;4972286;28;20050;-74
2022/05/30 04:25:54;;;;;;;3.97;2.60;;;;;;;8.63;77.88;100267.28;4972686;28;20057;-75
2022/05/30 04:28:57;;;;;;;6.60;2.47;;;;;;;8.87;77.10;100267.84;4963111;28;20050;-74
2022/05/30 04:32:17;;;;;;;2.83;2.25;;;;;;;8.75;77.49;100258.88;4965082;28;20166;-75
2022/05/30 04:35:20;;;;;;;4.93;3.33;;;;;;;8.64;77.98;100268.97;4976102;28;20112;-75
2022/05/30 04:38:24;;;;;;;;;;;;;;;8.55;78.66;100260.69;4962278;28;20101;-75
2022/05/30 04:41:47;;;;;;;4.03;2.90;;;;;;;8.51;78.67;100263.50;4976858;28;19921;-75
2022/05/30 04:45:09;;;;;;;5.00;2.80;;;;;;;8.55;78.88;100265.91;4976483;28;20057;-75
2022/05/30 04:48:22;;;;;;;3.95;2.42;;;;;;;8.76;78.39;100260.56;4961123;28;20109;-75
2022/05/30 04:51:27;;;;;;;4.55;2.70;;;;;;;8.99;77.10;100257.66;4964612;28;20561;-75
2022/05/30 04:54:30;;;;;;;6.20;2.67;;;;;;;9.02;77.33;100261.88;4964942;28;20077;-75
2022/05/30 04:57:52;;;;;;;4.13;2.72;;;;;;;9.25;76.43;100260.69;4976472;28;20109;-75
2022/05/30 05:01:27;;;;;;;5.57;2.58;;;;;;;9.26;76.72;100260.63;4976576;28;20178;-76
2022/05/30 05:04:30;;;;;;;5.75;3.05;;;;;;;9.29;76.71;100255.25;4964361;28;20105;-76
2022/05/30 05:07:44;;;;;;;;;;;;;;;9.35;76.55;100264.56;4965078;28;20046;-76
2022/05/30 05:11:21;;;;;;;4.25;2.70;;;;;;;9.45;76.09;100268.38;4975567;28;19925;-76
2022/05/30 05:14:54;;;;;;;5.05;3.15;;;;;;;9.53;75.67;100265.34;4976290;28;20058;-76
2022/05/30 05:18:27;;;;;;;5.88;3.40;;;;;;;9.27;77.08;100274.53;4963522;28;20125;-76
2022/05/30 05:21:34;;;;;;;6.07;3.00;;;;;;;9.42;76.82;100278.97;4964333;28;20077;-76
2022/05/30 05:24:37;;;;;;;4.45;2.78;;;;;;;9.43;76.53;100280.63;4976023;28;20130;-76
2022/05/30 05:27:50;;;;;;;3.92;3.20;;;;;;;9.63;76.16;100287.44;4975858;28;20049;-76
2022/05/30 05:30:53;;;;;;;4.40;2.72;;;;;;;9.80;75.70;100294.41;4963987;28;20564;-76
2022/05/30 05:33:57;;;;;;;5.60;3.38;;;;;;;9.61;76.59;100294.53;4963809;28;20477;-76
2022/05/30 05:37:01;;;;;;;5.80;3.50;;;;;;;9.54;77.34;100294.00;4963965;28;20622;-76
2022/05/30 05:40:08;;;;;;;5.55;3.80;;;;;;;9.51;77.47;100304.59;4962730;28;20106;-75
2022/05/30 05:43:13;;;;;;;5.75;3.97;;;;;;;9.41;78.68;100302.50;4963514;28;20046;-76
2022/05/30 05:46:19;;;;;;;5.35;3.42;;;;;;;9.68;76.88;100300.25;4963791;28;20410;-75
2022/05/30 05:49:22;;;;;;;5.63;3.60;;;;;;;9.43;78.02;100309.34;4963525;28;20054;-76
2022/05/30 05:52:28;;;;;;;4.60;3.10;;;;;;;9.72;77.34;100313.06;4974743;28;20054;-76
2022/05/30 05:55:34;;;;;;;4.45;3.80;;;;;;;9.84;76.92;100301.16;4963517;28;20105;-76
2022/05/30 05:58:39;;;;;;;6.30;4.22;;;;;;;9.74;77.41;100302.56;4963477;28;20158;-76
2022/05/30 06:01:43;;;;;;;5.97;3.92;;;;;;;9.84;77.09;100306.38;4963352;28;20065;-75
2022/05/30 06:04:46;;;;;;;5.60;4.38;;;;;;;10.08;76.32;100298.13;4958574;28;20042;-76
2022/05/30 06:08:12;;;;;;;6.32;4.93;;;;;;;10.01;77.40;100298.47;4975176;28;20053;-76
2022/05/30 06:11:35;;;;;;;6.00;4.15;;;;;;;10.07;77.68;100291.25;4963005;28;20516;-76
2022/05/30 06:14:40;;;;;;;7.90;4.03;;;;;;;10.09;78.12;100298.06;4974318;28;20118;-76
2022/05/30 06:17:45;;;;;;;6.28;4.50;;;;;;;10.02;78.65;100301.94;4974492;28;20463;-76
2022/05/30 06:20:49;;;;;;;8.50;4.85;;;;;;;10.26;77.47;100305.03;4963138;28;20045;-76
2022/05/30 06:23:53;;;;;;;;;;;;;;;10.43;77.26;100302.34;4963468;28;20042;-76
2022/05/30 06:27:18;;;;;;;9.73;6.00;;;;;;;10.62;75.81;100303.91;4974804;28;19921;-76
2022/05/30 06:30:49;;;;;;;;;;;;;;;10.58;75.69;100305.84;4963182;28;20097;-76
2022/05/30 06:33:53;;;;;;;8.00;7.18;;;;;;;10.90;74.77;100317.13;4962767;28;19924;-76
2022/05/30 06:37:08;;;;;;;9.70;6.85;;;;;;;11.04;74.59;100318.09;4962850;28;20126;-76
2022/05/30 06:40:15;;;;;;;7.70;6.03;;;;;;;11.17;73.76;100327.78;4962656;28;20094;-76
2022/05/30 06:43:23;;;;;;;8.45;5.80;;;;;;;11.21;72.46;100325.00;4973805;28;20064;-76
2022/05/30 06:47:07;;;;;;;6.53;4.18;;;;;;;11.30;70.70;100324.47;4952958;29;20045;-76
2022/05/30 06:50:29;;;;;;;7.95;4.32;;;;;;;11.45;70.03;100320.09;4954797;28;20114;-76
2022/05/30 06:53:33;;;;;;;8.15;3.97;;;;;;;11.41;69.71;100322.03;4962609;28;20093;-76
2022/05/30 07:00:05;;;;;;;6.15;2.78;;;;;;;11.44;68.73;100323.66;4973396;28;20108;-76
2022/05/30 07:03:12;;;;;;;6.85;3.38;;;;;;;11.40;68.30;100325.59;4962322;28;20073;-76
2022/05/30 07:06:35;;;;;;;8.20;3.33;;;;;;;11.68;68.11;100321.31;4974257;28;20457;-76
2022/05/30 07:09:39;;;;;;;5.43;2.85;;;;;;;11.88;67.30;100328.03;4973937;28;20102;-75
2022/05/30 07:12:48;;;;;;;8.73;2.83;;;;;;;11.96;66.92;100328.41;4974280;28;20512;-76
2022/05/30 07:15:51;;;;;;;;;;;;;;;12.08;65.90;100330.28;4962534;28;20097;-76
2022/05/30 07:19:00;;;;;;;8.40;2.00;;;;;;;11.93;64.86;100325.97;4962018;28;19972;-76
2022/05/30 07:22:06;;;;;;;7.75;2.15;;;;;;;12.01;65.61;100323.72;4962030;28;20407;-76
2022/05/30 07:25:28;;;;;;;6.38;2.63;;;;;;;11.82;65.38;100327.44;4991855;28;20088;-75
2022/05/30 07:28:51;;;;;;;6.10;2.35;;;;;;;11.79;65.21;100330.22;4991054;28;20069;-75
2022/05/30 07:32:17;;;;;;;6.68;2.20;;;;;;;11.73;65.13;100330.59;4972221;28;20048;-74
2022/05/30 07:35:42;;;;;;;4.10;2.15;;;;;;;11.39;67.11;100335.25;4993187;28;20049;-75
2022/05/30 07:39:01;;;;;;;9.15;2.03;;;;;;;11.61;67.22;100341.81;4992768;28;20049;-76
2022/05/30 07:42:23;;;;;;;6.57;1.95;;;;;;;11.27;68.61;100341.19;4989251;28;20060;-76
2022/05/30 07:45:38;;;;;;;4.72;2.30;;;;;;;11.04;70.13;100341.66;4979214;28;20054;-76
2022/05/30 07:49:13;;;;;;;5.63;2.10;;;;;;;11.28;70.77;100335.00;4991150;28;20485;-76
2022/05/30 07:52:50;;;;;;;6.53;2.03;;;;;;;11.46;72.04;100337.50;4979368;28;20418;-76
2022/05/30 07:55:59;;;;;;;8.40;2.58;;;;;;;11.44;71.59;100344.59;4992121;28;20053;-76
2022/05/30 07:59:03;;;;;;;8.25;2.25;;;;;;;11.59;70.60;100344.53;4974922;28;20133;-76
2022/05/30 08:02:06;;;;;;;;;;;;;;;11.49;68.94;100348.63;4975505;28;20645;-76
2022/05/30 08:05:11;;;;;;;4.50;2.28;;;;;;;11.45;70.54;100349.72;4979359;28;19980;-76
2022/05/30 08:08:53;;;;;;;4.97;2.05;;;;;;;11.61;72.22;100347.91;4894879;29;20519;-76
2022/05/30 08:11:56;;;;;;;5.65;1.92;;;;;;;11.70;72.21;100346.50;4894674;29;20043;-76
2022/05/30 08:15:20;;;;;;;7.68;2.38;;;;;;;11.77;71.38;100350.47;4977844;28;20092;-76
2022/05/30 08:19:08;;;;;;;6.40;2.35;;;;;;;11.88;69.67;100343.75;4992751;28;20105;-76
2022/05/30 08:22:13;;;;;;;5.28;2.22;;;;;;;11.97;68.29;100345.81;4980530;28;20057;-76
2022/05/30 08:25:18;;;;;;;7.88;2.58;;;;;;;12.13;67.90;100341.31;4991612;28;20037;-76
2022/05/30 08:28:21;;;;;;;6.97;2.10;;;;;;;12.44;67.33;100337.59;4980399;28;20041;-76
2022/05/30 08:31:26;;;;;;;7.70;2.00;;;;;;;12.33;69.31;100334.84;4992078;28;20049;-76
2022/05/30 08:35:00;;;;;;;4.35;1.73;;;;;;;12.33;66.16;100334.84;4992452;28;20117;-76
2022/05/30 08:38:05;;;;;;;4.05;1.38;;;;;;;12.24;64.97;100338.03;4991683;28;20046;-76
2022/05/30 08:44:34;;;;;;;5.38;1.60;;;;;;;12.01;62.90;100355.19;4980344;28;20137;-76
2022/05/30 08:48:40;;;;;;;4.50;1.38;;;;;;;12.14;63.48;100340.38;4992416;28;20565;-76
2022/05/30 08:51:50;;;;;;;4.20;1.67;;;;;;;12.18;60.42;100347.09;4991376;28;20129;-76
2022/05/30 08:55:29;;;;;;;5.45;1.20;;;;;;;12.60;59.36;100353.22;4980600;28;20543;-76
2022/05/30 08:58:56;;;;;;;3.00;0.90;;;;;;;12.75;59.63;100346.16;4925858;28;20618;-76
2022/05/30 09:02:02;;;;;;;4.13;1.13;;;;;;;12.74;60.18;100349.75;4980237;28;20125;-76
2022/05/30 09:05:33;;;;;;;5.88;1.15;;;;;;;12.59;60.41;100345.47;4980262;28;20580;-76
2022/05/30 09:08:39;;;;;;;4.93;1.33;;;;;;;12.69;60.67;100347.41;4980273;28;20046;-76
2022/05/30 09:12:18;;;;;;;4.13;1.40;;;;;;;12.57;59.63;100350.78;4980441;28;20100;-76
2022/05/30 09:15:53;;;;;;;7.32;1.63;;;;;;;12.60;58.81;100352.38;4983450;28;20548;-76
2022/05/30 09:19:00;;;;;;;4.72;1.55;;;;;;;12.66;58.46;100344.97;4983528;28;20109;-76
2022/05/30 09:22:07;;;;;;;4.35;1.20;;;;;;;12.82;57.64;100341.38;4983421;28;20077;-76
2022/05/30 09:29:29;;;;;;;6.30;1.50;;;;;;;12.74;58.78;100353.19;4995378;28;20050;-75
2022/05/30 09:32:57;;;;;;;4.10;1.48;;;;;;;12.75;58.15;100347.00;4995256;28;20201;-76
2022/05/30 09:36:30;;;;;;;4.78;1.33;;;;;;;12.71;58.60;100345.53;4995547;28;20045;-76
2022/05/30 09:39:57;;;;;;;5.85;1.50;;;;;;;13.00;58.30;100340.19;4995242;28;20422;-76
2022/05/30 09:43:02;;;;;;;6.13;1.85;;;;;;;13.07;57.72;100335.38;4983337;28;20096;-76
2022/05/30 09:46:32;;;;;;;6.47;1.63;;;;;;;12.90;56.37;100334.69;4982888;28;20064;-76
2022/05/30 09:50:18;;;;;;;4.10;1.20;;;;;;;12.98;55.11;100334.19;4994893;28;20065;-76
2022/05/30 09:53:53;;;;;;;4.13;1.33;;;;;;;13.11;54.21;100334.22;4982864;28;20056;-76
2022/05/30 09:57:13;;;;;;;4.82;1.23;;;;;;;13.16;53.46;100332.97;4982965;28;20144;-76
2022/05/30 10:00:53;;;;;;;3.50;1.20;;;;;;;13.29;53.96;100337.44;4994812;28;20055;-76
2022/05/30 10:04:14;;;;;;;3.67;1.15;;;;;;;13.45;53.24;100335.47;4994713;28;20433;-76
2022/05/30 10:07:50;;;;;;;9.25;1.50;;;;;;;13.40;52.78;100335.81;4994816;28;20053;-76
2022/05/30 10:11:35;;;;;;;3.78;1.20;;;;;;;13.54;52.15;100329.59;4993781;28;20397;-76
2022/05/30 10:14:45;;;;;;;2.60;1.00;;;;;;;13.89;53.26;100334.25;4982524;28;20058;-76
2022/05/30 10:18:18;;;;;;;5.40;1.20;;;;;;;14.06;52.17;100330.44;4982290;28;20046;-76
2022/05/30 10:21:32;;;;;;;3.47;1.10;;;;;;;14.24;52.59;100334.41;4982480;28;20101;-76
2022/05/30 10:29:39;;;;;;;6.95;1.45;;;;;;;14.26;51.36;100326.41;4982418;28;20147;-76
2022/05/30 10:33:30;;;;;;;5.40;1.17;;;;;;;14.01;51.87;100328.13;4994033;28;20125;-76
2022/05/30 10:36:35;;;;;;;4.82;1.30;;;;;;;14.21;50.87;100331.16;4982030;28;20073;-76
2022/05/30 10:39:54;;;;;;;4.93;1.20;;;;;;;14.24;51.14;100338.84;4982324;28;20609;-76
2022/05/30 10:43:10;;;;;;;7.00;1.27;;;;;;;14.47;52.17;100330.13;4993383;28;20117;-76
2022/05/30 10:46:27;;;;;;;6.93;1.52;;;;;;;14.69;50.94;100326.00;4982106;28;20099;-76
2022/05/30 10:49:35;;;;;;;6.38;1.48;;;;;;;14.78;48.92;100323.53;4981990;28;20093;-76
2022/05/30 10:52:55;;;;;;;2.95;1.15;;;;;;;14.58;50.27;100327.63;4981912;28;20051;-76
2022/05/30 10:56:19;;;;;;;6.57;1.25;;;;;;;14.04;45.95;100327.94;4993214;28;20061;-75
2022/05/30 10:59:36;;;;;;;5.28;1.30;;;;;;;14.33;44.88;100322.41;4981891;28;20041;-76
2022/05/30 11:03:19;;;;;;;4.40;1.42;;;;;;;14.53;46.09;100323.63;4981597;28;20116;-76
2022/05/30 11:06:29;;;;;;;3.50;0.95;;;;;;;14.65;46.53;100323.59;4981581;28;20034;-76
2022/05/30 11:09:54;;;;;;;4.30;1.25;;;;;;;14.47;44.18;100314.34;4981500;28;20048;-76
2022/05/30 11:13:20;;;;;;;4.15;1.70;;;;;;;14.52;45.04;100327.22;4981727;28;20041;-76
2022/05/30 11:16:57;;;;;;;4.35;1.20;;;;;;;14.17;47.32;100334.00;4993380;28;20045;-75
2022/05/30 11:20:34;;;;;;;3.15;1.23;;;;;;;14.12;46.71;100338.72;4993253;28;20041;-75
2022/05/30 11:23:38;;;;;;;5.18;1.33;;;;;;;14.10;46.07;100342.41;4981523;28;20044;-75
2022/05/30 11:26:57;;;;;;;6.80;1.50;;;;;;;14.38;47.03;100334.25;4993335;28;20413;-76
2022/05/30 11:30:08;;;;;;;5.63;1.02;;;;;;;14.42;47.13;100327.84;4993003;28;20045;-76
2022/05/30 11:33:53;;;;;;;6.97;1.27;;;;;;;14.81;45.38;100333.00;4993102;28;20337;-76
2022/05/30 11:37:24;;;;;;;4.95;1.10;;;;;;;14.82;45.07;100329.41;4980658;28;20077;-76
2022/05/30 11:40:46;;;;;;;3.40;0.90;;;;;;;15.29;43.67;100338.22;4993082;28;20057;-76
2022/05/30 11:44:46;;;;;;;3.10;0.85;;;;;;;15.03;43.81;100343.63;4992950;28;20046;-75
2022/05/30 11:48:06;;;;;;;2.60;0.98;;;;;;;15.18;42.55;100333.75;4932962;29;20050;-76
2022/05/30 11:51:29;;;;;;;5.78;1.40;;;;;;;15.72;43.30;100320.00;4945475;28;20109;-76
2022/05/30 11:54:55;;;;;;;3.80;1.50;;;;;;;16.00;42.94;100317.88;4992906;28;20457;-76
2022/05/30 11:58:13;;;;;;;2.47;1.02;;;;;;;15.52;43.10;100323.31;4992872;28;20458;-75
2022/05/30 12:01:20;;;;;;;4.72;0.98;;;;;;;15.62;42.91;100328.72;4992854;28;20053;-75
2022/05/30 12:04:55;;;;;;;7.57;1.27;;;;;;;15.52;43.69;100328.59;4992660;28;20089;-76
2022/05/30 12:08:05;;;;;;;4.97;1.17;;;;;;;15.41;42.33;100336.44;4983308;28;20053;-75
2022/05/30 12:11:27;;;;;;;3.95;1.25;;;;;;;15.10;43.19;100334.31;4992822;28;20097;-75
2022/05/30 12:14:36;;;;;;;3.63;1.00;;;;;;;14.54;42.61;100326.13;4980486;28;20045;-75
2022/05/30 12:24:41;;;;;;;3.25;1.25;;;;;;;16.50;41.85;100321.78;4992644;28;20053;-77
2022/05/30 12:27:47;;;;;;;3.38;1.25;;;;;;;16.33;41.24;100324.09;4996479;28;20409;-76
2022/05/30 12:30:56;;;;;;;5.40;1.13;;;;;;;16.43;41.40;100323.25;5002740;28;20089;-76
2022/05/30 12:33:59;;;;;;;4.10;0.90;;;;;;;15.85;39.84;100335.72;5012529;28;20100;-77
2022/05/30 12:37:03;;;;;;;3.45;1.15;;;;;;;15.97;41.02;100323.41;5012285;28;20100;-76
2022/05/30 12:40:18;;;;;;;5.80;1.60;;;;;;;16.82;40.67;100313.09;5012110;28;20096;-76
2022/05/30 12:43:23;;;;;;;4.60;1.60;;;;;;;17.55;38.47;100311.41;5011894;28;20096;-75
2022/05/30 12:46:29;;;;;;;4.25;1.05;;;;;;;18.05;36.18;100310.69;4999859;28;20129;-76
2022/05/30 12:49:33;;;;;;;4.25;1.02;;;;;;;17.27;37.28;100320.81;5013793;28;20465;-76
2022/05/30 12:52:51;;;;;;;3.05;1.52;;;;;;;17.46;36.08;100319.28;5015835;28;20049;-75
2022/05/30 12:55:55;;;;;;;5.65;1.08;;;;;;;16.57;37.23;100319.50;5017501;28;20092;-75
2022/05/30 12:59:02;;;;;;;4.95;0.90;;;;;;;16.64;37.30;100317.19;5015986;28;20092;-76
2022/05/30 13:02:07;;;;;;;4.97;1.02;;;;;;;16.82;36.83;100326.31;5005674;28;20049;-77
2022/05/30 13:05:41;;;;;;;3.65;0.90;;;;;;;16.91;36.98;100322.91;5016294;28;20052;-75
2022/05/30 13:09:15;;;;;;;4.00;1.00;;;;;;;16.65;38.30;100326.78;5015713;28;20515;-75
2022/05/30 13:12:51;;;;;;;4.30;0.98;;;;;;;16.28;38.14;100321.81;5014960;28;20509;-75
2022/05/30 13:15:58;;;;;;;3.70;0.75;;;;;;;16.14;39.12;100329.97;5003295;28;20161;-76
2022/05/30 13:19:04;;;;;;;3.00;0.98;;;;;;;16.34;39.04;100336.34;5015450;28;20040;-76
2022/05/30 13:22:07;;;;;;;3.00;0.90;;;;;;;16.09;40.06;100332.16;5015237;28;20041;-75
2022/05/30 13:25:14;;;;;;;3.72;1.30;;;;;;;16.21;39.71;100328.56;5015142;28;20044;-75
2022/05/30 13:28:20;;;;;;;5.13;1.00;;;;;;;16.37;40.50;100326.38;5014971;28;20053;-74
2022/05/30 13:31:24;;;;;;;3.75;1.10;;;;;;;15.84;40.25;100323.50;5014978;28;20108;-74
2022/05/30 13:34:31;;;;;;;3.55;1.23;;;;;;;16.32;39.47;100330.34;5014803;28;20468;-75
2022/05/30 13:37:38;;;;;;;3.47;1.10;;;;;;;16.61;38.94;100328.00;5014674;28;20512;-75
2022/05/30 13:40:47;;;;;;;3.75;1.15;;;;;;;16.89;38.46;100326.63;5014742;28;20110;-74
2022/05/30 13:43:57;;;;;;;4.30;1.38;;;;;;;17.03;39.05;100325.50;5013502;28;20523;-76
2022/05/30 13:47:07;;;;;;;6.63;1.25;;;;;;;18.88;36.16;100316.63;5014888;28;20056;-74
2022/05/30 13:50:11;;;;;;;5.90;1.08;;;;;;;17.73;37.58;100319.56;5014598;28;20053;-74
2022/05/30 13:53:20;;;;;;;4.05;0.93;;;;;;;17.04;39.28;100319.22;5015285;28;20437;-75
2022/05/30 13:56:33;;;;;;;4.50;1.58;;;;;;;18.18;35.72;100324.53;5015276;28;20060;-76
2022/05/30 13:59:45;;;;;;;;;;;;;;;20.51;33.56;100316.34;5015272;28;20081;-76
2022/05/30 14:02:50;;;;;;;6.40;1.50;;;;;;;21.09;31.38;100310.63;5015328;28;19924;-76
2022/05/30 14:05:53;;;;;;;4.75;1.35;;;;;;;21.47;29.79;100307.75;5015149;28;20095;-76
2022/05/30 14:08:57;;;;;;;4.05;1.45;;;;;;;23.97;26.69;100300.59;5014855;28;20037;-76
2022/05/30 14:12:01;;;;;;;3.95;1.40;;;;;;;21.96;28.23;100303.56;5014802;28;20049;-76
2022/05/30 14:15:25;;;;;;;4.03;1.40;;;;;;;20.36;31.18;100307.22;5014427;28;20069;-76
2022/05/30 14:18:55;;;;;;;6.13;1.52;;;;;;;21.56;29.77;100302.34;5015252;28;20508;-76
2022/05/30 14:22:06;;;;;;;3.38;1.27;;;;;;;22.86;26.93;100300.34;5014881;28;20389;-76
2022/05/30 14:25:48;;;;;;;4.27;1.33;;;;;;;27.94;21.10;100275.88;5014270;28;20093;-77
2022/05/30 14:29:07;;;;;;;3.13;1.40;;;;;;;29.12;19.37;100287.97;5014104;28;20112;-77
2022/05/30 14:32:20;;;;;;;3.78;1.23;;;;;;;28.42;19.35;100276.69;5014759;28;20114;-76
2022/05/30 14:35:27;;;;;;;4.25;1.40;;;;;;;28.54;18.43;100284.19;4999833;28;20046;-76
2022/05/30 14:38:39;;;;;;;3.70;1.60;;;;;;;26.56;21.53;100291.50;4983874;28;20085;-76
2022/05/30 14:41:55;;;;;;;4.15;1.40;;;;;;;21.89;27.70;100293.69;5014319;28;20116;-76
2022/05/30 14:45:07;;;;;;;3.88;1.20;;;;;;;19.81;31.15;100304.50;5013818;28;20057;-76
2022/05/30 14:48:21;;;;;;;6.88;1.30;;;;;;;20.07;31.12;100302.88;5013289;28;20048;-76
2022/05/30 14:51:38;;;;;;;4.10;1.40;;;;;;;20.77;29.44;100300.53;5013515;28;20076;-76
2022/05/30 14:54:49;;;;;;;3.83;1.77;;;;;;;23.03;25.78;100296.72;5013472;28;20049;-76
2022/05/30 14:57:55;;;;;;;3.28;1.10;;;;;;;24.01;25.52;100290.41;5013077;28;20044;-76
2022/05/30 15:01:00;;;;;;;3.03;1.00;;;;;;;21.34;28.28;100302.81;5013317;28;20095;-77
2022/05/30 15:04:10;;;;;;;4.63;1.35;;;;;;;20.11;30.51;100314.88;5013061;28;20057;-76
2022/05/30 15:07:22;;;;;;;3.70;1.02;;;;;;;19.60;32.18;100325.91;5012989;28;20120;-76
2022/05/30 15:10:34;;;;;;;4.22;1.45;;;;;;;18.81;33.20;100311.88;5013283;28;20081;-76
2022/05/30 15:13:37;;;;;;;4.30;1.52;;;;;;;17.94;34.13;100319.56;5012932;28;20045;-76
2022/05/30 15:16:41;;;;;;;3.80;1.77;;;;;;;17.72;35.14;100325.00;5012881;28;20100;-76
2022/05/30 15:19:44;;;;;;;4.25;2.13;;;;;;;17.92;34.61;100324.16;5013007;28;20409;-75
2022/05/30 15:22:48;;;;;;;6.05;1.35;;;;;;;17.82;34.86;100321.47;5013054;28;20176;-75
2022/05/30 15:25:52;;;;;;;4.20;1.60;;;;;;;17.65;35.89;100319.41;4999493;28;20429;-75
2022/05/30 15:28:56;;;;;;;3.63;1.85;;;;;;;17.69;34.97;100319.97;5012034;28;20588;-75
2022/05/30 15:32:09;;;;;;;4.18;1.35;;;;;;;17.75;34.67;100322.94;5013169;28;20076;-75
2022/05/30 15:35:14;;;;;;;4.65;1.58;;;;;;;17.24;34.24;100315.78;5012522;28;20056;-76
2022/05/30 15:38:19;;;;;;;3.10;1.42;;;;;;;16.94;36.10;100320.03;5012782;28;20095;-76